Levante — 9HOB7 — position and weather

sailwx.info

Track history (hours):
 
Tides and Currents Weather Stations Pressure Air Temp Water Temp Dewpoint Dewpoint Depression Visibility Wind Speed Wind Dir Waves Ship Positions

Levante

Last reported at 2015-Sep-05 09:33 UTC. Time now 2015-Sep-05 10:16 UTC.
Position S 29°52' E 031°03'.

Length 188.3 m; beam 28 m; draft 10.1 m.

Type: Ship. MMSI: 215440000.

Date/timePositionNaut miles runAvg speedWind from/ knotsBaromVisibWave heightAir tempDewpointWater temp
2015-Sep-05 09:33S 29°52' E 031°03'0 0.0
2015-Sep-05 08:33S 29°52' E 031°03'0 0.0
2015-Sep-05 07:33S 29°52' E 031°03'0 0.0
2015-Sep-05 06:33S 29°52' E 031°03'0 0.0
2015-Sep-05 05:33S 29°52' E 031°03'0 0.0
2015-Sep-05 04:33S 29°52' E 031°03'0 0.0
2015-Sep-05 03:33S 29°52' E 031°03'0 0.0
2015-Sep-05 02:33S 29°52' E 031°03'0 0.0
2015-Sep-05 01:30S 29°52' E 031°03'0 0.0
2015-Sep-05 00:33S 29°52' E 031°03'0 0.0
2015-Sep-04 23:33S 29°52' E 031°03'4 3.7
2015-Sep-04 22:33S 29°50' E 031°06'4 4.0
2015-Sep-04 21:33S 29°51' E 031°11'9 9.0
2015-Sep-04 20:33S 29°49' E 031°21'1111.4
2015-Sep-04 19:33S 29°40' E 031°29'1211.6
2015-Sep-04 18:33S 29°31' E 031°37'1111.4
2015-Sep-04 17:33S 29°23' E 031°46'  
2015-Aug-31 12:03S 28°48' E 032°03'4 7.1
2015-Aug-31 11:26S 28°50' E 032°07'1 1.7
2015-Aug-31 10:32S 28°51' E 032°07'9 0.4
2015-Aug-30 12:33S 28°54' E 032°16'1111.2
2015-Aug-30 11:32S 28°46' E 032°26'  
Track history (hours):
 
Tides and Currents Weather Stations Pressure Air Temp Water Temp Dewpoint Dewpoint Depression Visibility Wind Speed Wind Dir Waves Ship Positions

Levante

Last reported at 2015-Sep-05 09:33 UTC. Time now 2015-Sep-05 10:16 UTC.
Position S 29°52' E 031°03'.

Length 188.3 m; beam 28 m; draft 10.1 m.

Type: Ship. MMSI: 215440000.

Date/timePositionNaut miles runAvg speedWind from/ knotsBaromVisibWave heightAir tempDewpointWater temp
2015-Sep-05 09:33S 29°52' E 031°03'0 0.0
2015-Sep-05 08:33S 29°52' E 031°03'0 0.0
2015-Sep-05 07:33S 29°52' E 031°03'0 0.0
2015-Sep-05 06:33S 29°52' E 031°03'0 0.0
2015-Sep-05 05:33S 29°52' E 031°03'0 0.0
2015-Sep-05 04:33S 29°52' E 031°03'0 0.0
2015-Sep-05 03:33S 29°52' E 031°03'0 0.0
2015-Sep-05 02:33S 29°52' E 031°03'0 0.0
2015-Sep-05 01:30S 29°52' E 031°03'0 0.0
2015-Sep-05 00:33S 29°52' E 031°03'0 0.0
2015-Sep-04 23:33S 29°52' E 031°03'4 3.7
2015-Sep-04 22:33S 29°50' E 031°06'4 4.0
2015-Sep-04 21:33S 29°51' E 031°11'9 9.0
2015-Sep-04 20:33S 29°49' E 031°21'1111.4
2015-Sep-04 19:33S 29°40' E 031°29'1211.6
2015-Sep-04 18:33S 29°31' E 031°37'1111.4
2015-Sep-04 17:33S 29°23' E 031°46'  
2015-Aug-31 12:03S 28°48' E 032°03'4 7.1
2015-Aug-31 11:26S 28°50' E 032°07'1 1.7
2015-Aug-31 10:32S 28°51' E 032°07'9 0.4
2015-Aug-30 12:33S 28°54' E 032°16'1111.2
2015-Aug-30 11:32S 28°46' E 032°26'  

Dump ship's entire track history